Terminal Aerodrome Forecast
Issued by NWS Charleston, WV

Current Version | Previous Version | Text Only | Print | Product List | Glossary Off
Versions: 1 2 3 4 5 6 7 8 9 10 11 12 13 14 15 16 17 18 19 20 21 22 23 24 25 26

354
FTUS41 KRLX 211558 AAA
TAFEKN
TAF AMD
KEKN 211558Z 2116/2212 VRB03KT P6SM SKC
     FM211700 34003KT P6SM SCT045
     FM220000 00000KT P6SM SCT250
     FM220900 00000KT 2SM BR FEW001=

USA.gov is the U.S. government's official web portal to all federal, state and local government web resources and services.